createdAt,value
2023-05-22T00:00:40.947Z,19.36
2023-05-22T00:01:40.601Z,19.23
2023-05-22T00:02:40.640Z,19.29
2023-05-22T00:03:40.498Z,19.36
2023-05-22T00:04:40.475Z,19.35
2023-05-22T00:05:40.448Z,19.38
2023-05-22T00:06:40.338Z,19.33
2023-05-22T00:07:40.288Z,19.38
2023-05-22T00:08:40.245Z,19.23
2023-05-22T00:09:40.201Z,19.36
2023-05-22T00:10:40.403Z,19.33
2023-05-22T00:11:40.105Z,19.36
2023-05-22T00:12:40.053Z,19.28
2023-05-22T00:13:39.994Z,19.36
2023-05-22T00:14:39.934Z,19.32
2023-05-22T00:15:39.889Z,19.35
2023-05-22T00:16:39.885Z,19.32
2023-05-22T00:17:39.819Z,19.25
2023-05-22T00:18:39.734Z,19.24
2023-05-22T00:19:39.677Z,19.23
2023-05-22T00:20:39.872Z,19.33
2023-05-22T00:21:39.575Z,19.28
2023-05-22T00:22:39.532Z,19.23
2023-05-22T00:23:39.508Z,19.29
2023-05-22T00:24:39.429Z,19.21
2023-05-22T00:25:39.381Z,19.21
2023-05-22T00:26:39.348Z,19.24
2023-05-22T00:27:39.286Z,19.21
2023-05-22T00:28:39.233Z,19.21
2023-05-22T00:29:39.173Z,19.21
2023-05-22T00:30:39.319Z,19.18
2023-05-22T00:31:39.070Z,19.25
2023-05-22T00:32:39.046Z,19.28
2023-05-22T00:33:38.976Z,19.25
2023-05-22T00:34:38.941Z,19.23
2023-05-22T00:35:38.876Z,19.25
2023-05-22T00:36:38.825Z,19.23
2023-05-22T00:37:38.766Z,19.24
2023-05-22T00:38:38.719Z,19.15
2023-05-22T00:39:38.663Z,19.15
2023-05-22T00:40:38.938Z,19.15
2023-05-22T00:41:38.622Z,19.18
2023-05-22T00:42:38.505Z,19.20
2023-05-22T00:43:38.459Z,19.21
2023-05-22T00:44:38.405Z,19.14
2023-05-22T00:45:38.358Z,19.23
2023-05-22T00:46:38.372Z,19.23
2023-05-22T00:47:38.269Z,19.21
2023-05-22T00:48:38.230Z,19.24
2023-05-22T00:49:38.169Z,19.24
2023-05-22T00:50:38.403Z,19.18
2023-05-22T00:51:38.056Z,19.14
2023-05-22T00:52:38.007Z,19.17
2023-05-22T00:53:37.951Z,19.11
2023-05-22T00:54:37.897Z,19.10
2023-05-22T00:55:37.848Z,19.24
2023-05-22T00:56:37.807Z,19.11
2023-05-22T00:57:37.766Z,19.14
2023-05-22T00:58:37.690Z,19.18
2023-05-22T00:59:37.657Z,19.14
2023-05-22T01:00:38.004Z,19.17
2023-05-22T01:01:37.681Z,19.17
2023-05-22T01:02:37.586Z,19.02
2023-05-22T01:03:37.649Z,19.06
2023-05-22T01:04:37.423Z,19.10
2023-05-22T01:05:37.343Z,19.06
2023-05-22T01:06:37.283Z,18.99
2023-05-22T01:07:37.234Z,19.06
2023-05-22T01:08:37.180Z,19.02
2023-05-22T01:09:37.129Z,19.10
2023-05-22T01:10:37.154Z,19.10
2023-05-22T01:11:37.030Z,19.01
2023-05-22T01:12:36.973Z,18.98
2023-05-22T01:13:36.927Z,19.01
2023-05-22T01:14:36.871Z,19.06
2023-05-22T01:15:36.821Z,19.08
2023-05-22T01:16:36.800Z,19.08
2023-05-22T01:17:36.732Z,19.05
2023-05-22T01:18:36.677Z,19.05
2023-05-22T01:19:36.664Z,19.05
2023-05-22T01:20:36.872Z,18.95
2023-05-22T01:21:36.522Z,19.06
2023-05-22T01:22:36.462Z,18.98
2023-05-22T01:23:36.519Z,19.05
2023-05-22T01:24:39.083Z,18.95
2023-05-22T01:25:41.110Z,18.95
2023-05-22T01:26:36.256Z,18.97
2023-05-22T01:27:36.212Z,19.02
2023-05-22T01:28:36.157Z,18.95
2023-05-22T01:29:36.115Z,18.95
2023-05-22T01:30:36.097Z,18.95
2023-05-22T01:31:36.007Z,18.97
2023-05-22T01:32:35.999Z,18.97
2023-05-22T01:33:35.999Z,18.94
2023-05-22T01:34:35.852Z,18.91
2023-05-22T01:35:35.802Z,18.90
2023-05-22T01:36:35.841Z,18.92
2023-05-22T01:37:35.706Z,18.92
2023-05-22T01:38:35.656Z,18.87
2023-05-22T01:39:35.601Z,18.94
2023-05-22T01:40:35.549Z,18.92
2023-05-22T01:41:42.098Z,18.90
2023-05-22T01:42:35.447Z,18.92
2023-05-22T01:43:35.396Z,18.92
2023-05-22T01:44:35.340Z,18.87
2023-05-22T01:45:35.312Z,18.87
2023-05-22T01:46:35.248Z,18.90
2023-05-22T01:47:35.201Z,18.86
2023-05-22T01:48:35.137Z,18.92
2023-05-22T01:49:35.095Z,18.87
2023-05-22T01:50:35.041Z,18.84
2023-05-22T01:51:34.992Z,18.92
2023-05-22T01:52:34.963Z,18.86
2023-05-22T01:53:34.881Z,18.83
2023-05-22T01:54:34.824Z,18.80
2023-05-22T01:55:34.797Z,18.79
2023-05-22T01:56:34.763Z,18.86
2023-05-22T01:57:34.674Z,18.84
2023-05-22T01:58:34.626Z,18.92
2023-05-22T01:59:34.576Z,18.86
2023-05-22T02:00:41.135Z,18.82
2023-05-22T02:01:34.566Z,18.83
2023-05-22T02:02:34.474Z,18.80
2023-05-22T02:03:34.400Z,18.82
2023-05-22T02:04:34.327Z,18.82
2023-05-22T02:05:34.267Z,18.74
2023-05-22T02:06:34.215Z,18.76
2023-05-22T02:07:49.113Z,18.79
2023-05-22T02:08:34.111Z,18.83
2023-05-22T02:09:34.078Z,18.77
2023-05-22T02:10:34.010Z,18.76
2023-05-22T02:11:33.962Z,18.80
2023-05-22T02:12:33.912Z,18.79
2023-05-22T02:13:33.857Z,18.80
2023-05-22T02:14:33.805Z,18.74
2023-05-22T02:15:33.799Z,18.82
2023-05-22T02:16:33.707Z,18.82
2023-05-22T02:17:33.668Z,18.72
2023-05-22T02:18:33.599Z,18.82
2023-05-22T02:19:33.682Z,18.72
2023-05-22T02:20:33.492Z,18.74
2023-05-22T02:21:33.448Z,18.74
2023-05-22T02:22:33.396Z,18.68
2023-05-22T02:23:33.364Z,18.73
2023-05-22T02:24:33.293Z,18.67
2023-05-22T02:25:33.242Z,18.73
2023-05-22T02:26:33.200Z,18.72
2023-05-22T02:27:33.139Z,18.74
2023-05-22T02:28:33.092Z,18.74
2023-05-22T02:29:33.035Z,18.76
2023-05-22T02:30:32.983Z,18.68
2023-05-22T02:31:32.970Z,18.74
2023-05-22T02:32:32.968Z,18.65
2023-05-22T02:33:32.828Z,18.77
2023-05-22T02:34:32.781Z,18.62
2023-05-22T02:35:32.724Z,18.65
2023-05-22T02:36:32.671Z,18.73
2023-05-22T02:37:32.622Z,18.72
2023-05-22T02:38:32.572Z,18.57
2023-05-22T02:39:32.543Z,18.57
2023-05-22T02:40:32.470Z,18.65
2023-05-22T02:41:32.416Z,18.62
2023-05-22T02:42:32.374Z,18.61
2023-05-22T02:43:32.315Z,18.62
2023-05-22T02:44:32.264Z,18.67
2023-05-22T02:45:32.235Z,18.61
2023-05-22T02:46:32.171Z,18.59
2023-05-22T02:47:32.168Z,18.59
2023-05-22T02:48:32.057Z,18.59
2023-05-22T02:49:32.009Z,18.58
2023-05-22T02:50:31.962Z,18.62
2023-05-22T02:51:31.903Z,18.59
2023-05-22T02:52:31.857Z,18.58
2023-05-22T02:53:31.803Z,18.54
2023-05-22T02:54:31.748Z,18.58
2023-05-22T02:55:31.726Z,18.64
2023-05-22T02:56:31.641Z,18.50
2023-05-22T02:57:31.602Z,18.54
2023-05-22T02:58:31.538Z,18.58
2023-05-22T02:59:31.492Z,18.52
2023-05-22T03:00:31.443Z,18.50
2023-05-22T03:01:31.409Z,18.64
2023-05-22T03:02:31.383Z,18.52
2023-05-22T03:03:31.387Z,18.42
2023-05-22T03:04:31.232Z,18.52
2023-05-22T03:05:31.184Z,18.46
2023-05-22T03:06:31.128Z,18.47
2023-05-22T03:07:31.076Z,18.57
2023-05-22T03:08:31.028Z,18.46
2023-05-22T03:09:30.973Z,18.52
2023-05-22T03:10:30.923Z,18.43
2023-05-22T03:11:30.949Z,18.49
2023-05-22T03:12:30.820Z,18.46
2023-05-22T03:13:30.779Z,18.49
2023-05-22T03:14:30.712Z,18.46
2023-05-22T03:15:30.678Z,18.46
2023-05-22T03:16:30.656Z,18.47
2023-05-22T03:17:30.582Z,18.42
2023-05-22T03:18:30.509Z,18.46
2023-05-22T03:19:30.518Z,18.47
2023-05-22T03:20:30.405Z,18.43
2023-05-22T03:21:30.356Z,18.44
2023-05-22T03:22:30.301Z,18.44
2023-05-22T03:23:30.252Z,18.37
2023-05-22T03:24:30.213Z,18.36
2023-05-22T03:25:30.154Z,18.44
2023-05-22T03:26:30.105Z,18.39
2023-05-22T03:27:30.065Z,18.39
2023-05-22T03:28:30.013Z,18.37
2023-05-22T03:29:29.953Z,18.43
2023-05-22T03:30:29.892Z,18.43
2023-05-22T03:31:29.843Z,18.37
2023-05-22T03:32:29.828Z,18.36
2023-05-22T03:33:29.752Z,18.42
2023-05-22T03:34:29.696Z,18.34
2023-05-22T03:35:29.641Z,18.43
2023-05-22T03:36:32.376Z,18.42
2023-05-22T03:37:29.536Z,18.37
2023-05-22T03:38:29.477Z,18.33
2023-05-22T03:39:29.428Z,18.36
2023-05-22T03:40:29.375Z,18.33
2023-05-22T03:41:32.157Z,18.29
2023-05-22T03:42:29.281Z,18.34
2023-05-22T03:43:29.235Z,18.28
2023-05-22T03:44:29.171Z,18.33
2023-05-22T03:45:29.191Z,18.33
2023-05-22T03:46:29.122Z,18.31
2023-05-22T03:47:29.038Z,18.34
2023-05-22T03:48:28.970Z,18.33
2023-05-22T03:49:28.924Z,18.31
2023-05-22T03:50:28.864Z,18.25
2023-05-22T03:51:28.827Z,18.25
2023-05-22T03:52:28.757Z,18.22
2023-05-22T03:53:28.705Z,18.25
2023-05-22T03:54:28.653Z,18.21
2023-05-22T03:55:28.603Z,18.27
2023-05-22T03:56:28.549Z,18.28
2023-05-22T03:57:28.517Z,18.28
2023-05-22T03:58:28.448Z,18.25
2023-05-22T03:59:28.408Z,18.29
2023-05-22T04:00:28.341Z,18.29
2023-05-22T04:01:28.294Z,18.31
2023-05-22T04:02:28.316Z,18.33
2023-05-22T04:03:28.274Z,18.31
2023-05-22T04:04:28.133Z,18.24
2023-05-22T04:05:28.259Z,18.19
2023-05-22T04:06:28.049Z,18.29
2023-05-22T04:07:34.635Z,18.29
2023-05-22T04:08:27.927Z,18.25
2023-05-22T04:09:27.880Z,18.24
2023-05-22T04:10:27.831Z,18.17
2023-05-22T04:11:27.776Z,18.25
2023-05-22T04:12:27.720Z,18.29
2023-05-22T04:13:27.746Z,18.25
2023-05-22T04:14:27.652Z,18.24
2023-05-22T04:15:27.681Z,18.17
2023-05-22T04:16:27.546Z,18.21
2023-05-22T04:17:27.469Z,18.18
2023-05-22T04:18:27.413Z,18.25
2023-05-22T04:19:27.400Z,18.17
2023-05-22T04:20:27.312Z,18.22
2023-05-22T04:21:27.259Z,18.21
2023-05-22T04:22:27.205Z,18.22
2023-05-22T04:23:27.147Z,18.22
2023-05-22T04:24:27.099Z,18.22
2023-05-22T04:25:27.047Z,18.21
2023-05-22T04:26:26.996Z,18.22
2023-05-22T04:27:26.958Z,18.19
2023-05-22T04:28:26.889Z,18.22
2023-05-22T04:29:26.844Z,18.13
2023-05-22T04:30:26.785Z,18.27
2023-05-22T04:31:26.772Z,18.13
2023-05-22T04:32:26.708Z,18.22
2023-05-22T04:33:26.688Z,18.24
2023-05-22T04:34:26.586Z,18.22
2023-05-22T04:35:26.544Z,18.22
2023-05-22T04:36:26.487Z,18.19
2023-05-22T04:37:26.448Z,18.17
2023-05-22T04:38:26.421Z,18.19
2023-05-22T04:39:26.430Z,18.19
2023-05-22T04:40:26.333Z,18.21
2023-05-22T04:41:26.236Z,18.18
2023-05-22T04:42:26.188Z,18.15
2023-05-22T04:43:26.110Z,18.17
2023-05-22T04:44:26.064Z,18.15
2023-05-22T04:45:26.014Z,18.17
2023-05-22T04:46:25.987Z,18.12
2023-05-22T04:47:26.086Z,18.13
2023-05-22T04:48:25.864Z,18.13
2023-05-22T04:49:25.807Z,18.12
2023-05-22T04:50:25.754Z,18.17
2023-05-22T04:51:25.698Z,18.17
2023-05-22T04:52:25.660Z,18.15
2023-05-22T04:53:25.601Z,18.18
2023-05-22T04:54:25.551Z,18.10
2023-05-22T04:55:25.520Z,18.17
2023-05-22T04:56:35.476Z,18.12
2023-05-22T04:57:25.391Z,18.12
2023-05-22T04:58:25.346Z,18.09
2023-05-22T04:59:25.287Z,18.15
2023-05-22T05:00:25.237Z,18.12
2023-05-22T05:01:25.245Z,18.10
2023-05-22T05:02:25.211Z,18.13
2023-05-22T05:03:25.131Z,18.15
2023-05-22T05:04:25.035Z,18.07
2023-05-22T05:05:24.980Z,18.12
2023-05-22T05:06:24.918Z,18.17
2023-05-22T05:07:24.867Z,18.15
2023-05-22T05:08:24.825Z,18.09
2023-05-22T05:09:24.763Z,18.13
2023-05-22T05:10:24.713Z,18.07
2023-05-22T05:11:24.661Z,18.12
2023-05-22T05:12:24.612Z,18.15
2023-05-22T05:13:24.558Z,18.13
2023-05-22T05:14:24.524Z,18.17
2023-05-22T05:15:24.460Z,18.13
2023-05-22T05:16:24.411Z,18.15
2023-05-22T05:17:24.355Z,18.10
2023-05-22T05:18:24.306Z,18.09
2023-05-22T05:19:24.430Z,18.15
2023-05-22T05:20:24.199Z,18.12
2023-05-22T05:21:24.147Z,18.12
2023-05-22T05:22:24.095Z,18.15
2023-05-22T05:23:24.041Z,18.10
2023-05-22T05:24:23.991Z,18.15
2023-05-22T05:25:23.935Z,18.12
2023-05-22T05:26:23.886Z,18.15
2023-05-22T05:27:23.832Z,18.09
2023-05-22T05:28:23.776Z,18.12
2023-05-22T05:29:23.747Z,18.15
2023-05-22T05:30:23.695Z,18.12
2023-05-22T05:31:23.646Z,18.15
2023-05-22T05:32:23.712Z,18.12
2023-05-22T05:33:23.516Z,18.09
2023-05-22T05:34:23.468Z,18.13
2023-05-22T05:35:23.426Z,18.09
2023-05-22T05:36:23.364Z,18.13
2023-05-22T05:37:23.316Z,18.10
2023-05-22T05:38:23.263Z,18.07
2023-05-22T05:39:23.215Z,18.07
2023-05-22T05:40:23.166Z,18.09
2023-05-22T05:41:23.112Z,18.07
2023-05-22T05:42:23.060Z,18.12
2023-05-22T05:43:23.003Z,18.13
2023-05-22T05:44:22.953Z,18.13
2023-05-22T05:45:22.897Z,18.09
2023-05-22T05:46:22.896Z,18.17
2023-05-22T05:47:22.833Z,18.12
2023-05-22T05:48:22.742Z,18.07
2023-05-22T05:49:22.689Z,18.15
2023-05-22T05:50:22.647Z,18.10
2023-05-22T05:51:22.802Z,18.15
2023-05-22T05:52:22.541Z,18.17
2023-05-22T05:53:22.482Z,18.09
2023-05-22T05:54:22.438Z,18.12
2023-05-22T05:55:22.382Z,18.13
2023-05-22T05:56:22.326Z,18.12
2023-05-22T05:57:22.292Z,18.15
2023-05-22T05:58:22.223Z,18.12
2023-05-22T05:59:22.170Z,18.13
2023-05-22T06:00:22.129Z,18.13
2023-05-22T06:01:22.076Z,18.13
2023-05-22T06:02:22.076Z,18.09
2023-05-22T06:03:22.068Z,18.17
2023-05-22T06:04:21.914Z,18.17
2023-05-22T06:05:21.899Z,18.10
2023-05-22T06:06:21.813Z,18.13
2023-05-22T06:07:21.774Z,18.19
2023-05-22T06:08:21.706Z,18.22
2023-05-22T06:09:21.659Z,18.24
2023-05-22T06:10:21.629Z,18.25
2023-05-22T06:11:21.554Z,18.17
2023-05-22T06:12:21.497Z,18.21
2023-05-22T06:13:21.452Z,18.25
2023-05-22T06:14:21.403Z,18.19
2023-05-22T06:15:21.347Z,18.18
2023-05-22T06:16:21.336Z,18.22
2023-05-22T06:17:21.240Z,18.21
2023-05-22T06:18:21.192Z,18.15
2023-05-22T06:19:21.225Z,18.24
2023-05-22T06:20:21.085Z,18.24
2023-05-22T06:21:21.035Z,18.24
2023-05-22T06:22:20.997Z,18.27
2023-05-22T06:23:20.995Z,18.24
2023-05-22T06:24:20.874Z,18.27
2023-05-22T06:25:20.835Z,18.21
2023-05-22T06:26:20.768Z,18.21
2023-05-22T06:27:20.726Z,18.29
2023-05-22T06:28:20.675Z,18.25
2023-05-22T06:29:20.616Z,18.27
2023-05-22T06:30:38.252Z,18.33
2023-05-22T06:31:20.515Z,18.31
2023-05-22T06:32:20.502Z,18.31
2023-05-22T06:33:20.509Z,18.29
2023-05-22T06:34:20.502Z,18.24
2023-05-22T06:35:20.308Z,18.22
2023-05-22T06:36:20.254Z,18.18
2023-05-22T06:37:20.214Z,18.36
2023-05-22T06:38:20.153Z,18.33
2023-05-22T06:39:20.118Z,18.25
2023-05-22T06:40:20.052Z,18.36
2023-05-22T06:41:19.994Z,18.31
2023-05-22T06:42:19.950Z,18.27
2023-05-22T06:43:19.899Z,18.34
2023-05-22T06:44:19.839Z,18.27
2023-05-22T06:45:19.835Z,18.27
2023-05-22T06:46:19.770Z,18.27
2023-05-22T06:47:19.772Z,18.31
2023-05-22T06:48:19.629Z,18.27
2023-05-22T06:49:19.587Z,18.31
2023-05-22T06:50:19.525Z,18.21
2023-05-22T06:51:19.485Z,18.31
2023-05-22T06:52:19.431Z,18.33
2023-05-22T06:53:19.369Z,18.37
2023-05-22T06:54:19.337Z,18.33
2023-05-22T06:55:19.284Z,18.34
2023-05-22T06:56:19.220Z,18.33
2023-05-22T06:57:19.165Z,18.33
2023-05-22T06:58:19.110Z,18.37
2023-05-22T06:59:19.059Z,18.37
2023-05-22T07:00:21.525Z,18.31
2023-05-22T07:01:19.003Z,18.40
2023-05-22T07:02:18.910Z,18.37
2023-05-22T07:03:18.876Z,18.42
2023-05-22T07:04:18.799Z,18.37
2023-05-22T07:05:18.819Z,18.36
2023-05-22T07:06:18.750Z,18.40
2023-05-22T07:07:18.651Z,18.39
2023-05-22T07:08:18.598Z,18.42
2023-05-22T07:09:18.540Z,18.42
2023-05-22T07:10:18.499Z,18.43
2023-05-22T07:11:18.454Z,18.39
2023-05-22T07:12:41.195Z,18.39
2023-05-22T07:13:18.344Z,18.40
2023-05-22T07:14:18.286Z,18.44
2023-05-22T07:15:18.236Z,18.40
2023-05-22T07:16:18.204Z,18.43
2023-05-22T07:17:18.130Z,18.42
2023-05-22T07:18:18.074Z,18.43
2023-05-22T07:19:18.073Z,18.43
2023-05-22T07:20:17.987Z,18.42
2023-05-22T07:21:17.917Z,18.47
2023-05-22T07:22:17.863Z,18.46
2023-05-22T07:23:17.820Z,18.39
2023-05-22T07:24:17.820Z,18.44
2023-05-22T07:25:17.714Z,18.47
2023-05-22T07:26:17.660Z,18.49
2023-05-22T07:27:17.700Z,18.44
2023-05-22T07:28:17.553Z,18.46
2023-05-22T07:29:17.508Z,18.50
2023-05-22T07:30:17.464Z,18.57
2023-05-22T07:31:17.432Z,18.47
2023-05-22T07:32:17.360Z,18.52
2023-05-22T07:33:17.302Z,18.50
2023-05-22T07:34:17.248Z,18.49
2023-05-22T07:35:17.205Z,18.50
2023-05-22T07:36:17.143Z,18.47
2023-05-22T07:37:17.108Z,18.52
2023-05-22T07:38:17.038Z,18.43
2023-05-22T07:39:16.988Z,18.55
2023-05-22T07:40:16.935Z,18.52
2023-05-22T07:41:16.884Z,18.61
2023-05-22T07:42:16.835Z,18.52
2023-05-22T07:43:16.971Z,18.52
2023-05-22T07:44:16.724Z,18.61
2023-05-22T07:45:16.678Z,18.61
2023-05-22T07:46:16.649Z,18.50
2023-05-22T07:47:16.567Z,18.61
2023-05-22T07:48:16.566Z,18.64
2023-05-22T07:49:16.477Z,18.52
2023-05-22T07:50:16.416Z,18.52
2023-05-22T07:51:16.369Z,18.57
2023-05-22T07:52:16.327Z,18.68
2023-05-22T07:53:16.267Z,18.62
2023-05-22T07:54:16.242Z,18.72
2023-05-22T07:55:16.161Z,18.61
2023-05-22T07:56:16.101Z,18.61
2023-05-22T07:57:16.058Z,18.62
2023-05-22T07:58:16.019Z,18.67
2023-05-22T07:59:16.005Z,18.58
2023-05-22T08:00:15.889Z,18.65
2023-05-22T08:01:15.847Z,18.61
2023-05-22T08:02:15.858Z,18.68
2023-05-22T08:03:17.767Z,18.61
2023-05-22T08:04:15.786Z,18.76
2023-05-22T08:05:15.867Z,18.74
2023-05-22T08:06:15.591Z,18.64
2023-05-22T08:07:15.534Z,18.72
2023-05-22T08:08:15.486Z,18.62
2023-05-22T08:09:15.430Z,18.72
2023-05-22T08:10:15.381Z,18.67
2023-05-22T08:11:15.326Z,18.62
2023-05-22T08:12:15.276Z,18.72
2023-05-22T08:13:15.219Z,18.74
2023-05-22T08:14:15.173Z,18.76
2023-05-22T08:15:15.163Z,18.72
2023-05-22T08:16:15.067Z,18.73
2023-05-22T08:17:15.098Z,18.72
2023-05-22T08:18:15.034Z,18.74
2023-05-22T08:19:14.977Z,18.73
2023-05-22T08:20:14.901Z,18.74
2023-05-22T08:21:14.812Z,18.83
2023-05-22T08:22:14.762Z,18.76
2023-05-22T08:23:14.703Z,18.76
2023-05-22T08:24:14.654Z,18.77
2023-05-22T08:25:14.600Z,18.74
2023-05-22T08:26:14.560Z,18.79
2023-05-22T08:27:14.508Z,18.76
2023-05-22T08:28:14.450Z,18.72
2023-05-22T08:29:14.393Z,18.80
2023-05-22T08:30:14.340Z,18.79
2023-05-22T08:31:14.797Z,18.79
2023-05-22T08:32:14.240Z,18.90
2023-05-22T08:33:14.201Z,18.86
2023-05-22T08:34:14.147Z,18.86
2023-05-22T08:35:14.090Z,18.86
2023-05-22T08:36:14.038Z,18.90
2023-05-22T08:37:13.978Z,18.84
2023-05-22T08:38:13.929Z,18.90
2023-05-22T08:39:14.718Z,18.90
2023-05-22T08:40:13.840Z,18.97
2023-05-22T08:41:13.781Z,18.87
2023-05-22T08:42:13.734Z,18.84
2023-05-22T08:43:13.670Z,18.86
2023-05-22T08:44:13.622Z,18.91
2023-05-22T08:45:13.565Z,18.90
2023-05-22T08:46:13.519Z,18.94
2023-05-22T08:47:13.571Z,18.95
2023-05-22T08:48:13.412Z,18.94
2023-05-22T08:49:13.365Z,18.90
2023-05-22T08:50:13.312Z,18.97
2023-05-22T08:51:13.257Z,18.94
2023-05-22T08:52:13.222Z,18.91
2023-05-22T08:53:13.154Z,19.06
2023-05-22T08:54:13.111Z,19.02
2023-05-22T08:55:13.052Z,18.94
2023-05-22T08:56:13.004Z,19.02
2023-05-22T08:57:12.962Z,19.08
2023-05-22T08:58:12.903Z,19.02
2023-05-22T08:59:12.872Z,18.94
2023-05-22T09:00:12.813Z,18.95
2023-05-22T09:01:12.792Z,19.08
2023-05-22T09:02:12.692Z,19.10
2023-05-22T09:03:12.763Z,18.98
2023-05-22T09:04:12.721Z,18.98
2023-05-22T09:05:23.307Z,19.01
2023-05-22T09:06:12.499Z,19.14
2023-05-22T09:07:12.445Z,19.10
2023-05-22T09:08:20.606Z,19.06
2023-05-22T09:09:12.336Z,19.13
2023-05-22T09:10:12.287Z,19.06
2023-05-22T09:11:12.234Z,19.14
2023-05-22T09:12:12.181Z,19.13
2023-05-22T09:13:12.131Z,19.13
2023-05-22T09:14:12.087Z,19.14
2023-05-22T09:15:12.058Z,19.14
2023-05-22T09:16:11.975Z,19.14
2023-05-22T09:17:12.074Z,19.14
2023-05-22T09:18:11.902Z,19.23
2023-05-22T09:19:11.923Z,19.17
2023-05-22T09:20:11.772Z,19.17
2023-05-22T09:21:25.918Z,19.13
2023-05-22T09:22:11.692Z,19.33
2023-05-22T09:23:11.615Z,19.15
2023-05-22T09:24:11.578Z,19.24
2023-05-22T09:25:11.520Z,19.23
2023-05-22T09:26:11.460Z,19.11
2023-05-22T09:27:11.412Z,19.24
2023-05-22T09:28:11.375Z,19.20
2023-05-22T09:29:11.319Z,19.21
2023-05-22T09:30:11.273Z,19.28
2023-05-22T09:31:11.275Z,19.23
2023-05-22T09:32:11.160Z,19.25
2023-05-22T09:33:11.139Z,19.28
2023-05-22T09:34:11.063Z,19.25
2023-05-22T09:35:11.085Z,19.38
2023-05-22T09:36:10.967Z,19.20
2023-05-22T09:37:10.897Z,19.32
2023-05-22T09:38:12.231Z,19.29
2023-05-22T09:39:10.815Z,19.39
2023-05-22T09:40:10.744Z,19.31
2023-05-22T09:41:10.694Z,19.35
2023-05-22T09:42:10.653Z,19.31
2023-05-22T09:43:10.588Z,19.35
2023-05-22T09:44:10.560Z,19.35
2023-05-22T09:45:10.486Z,19.35
2023-05-22T09:46:10.475Z,19.39
2023-05-22T09:47:10.386Z,19.35
2023-05-22T09:48:21.473Z,19.28
2023-05-22T09:49:11.107Z,19.32
2023-05-22T09:50:10.230Z,19.40
2023-05-22T09:51:10.234Z,19.39
2023-05-22T09:52:10.134Z,19.35
2023-05-22T09:53:10.080Z,19.35
2023-05-22T09:54:10.035Z,19.39
2023-05-22T09:55:09.975Z,19.39
2023-05-22T09:56:09.921Z,19.40
2023-05-22T09:57:09.903Z,19.35
2023-05-22T09:58:09.822Z,19.38
2023-05-22T09:59:10.043Z,19.43
2023-05-22T10:00:09.725Z,19.47
2023-05-22T10:01:09.672Z,19.51
2023-05-22T10:02:09.686Z,19.46
2023-05-22T10:03:09.652Z,19.51
2023-05-22T10:04:09.565Z,19.48
2023-05-22T10:05:09.472Z,19.50
2023-05-22T10:06:09.427Z,19.50
2023-05-22T10:07:09.453Z,19.50
2023-05-22T10:08:09.318Z,19.46
2023-05-22T10:09:09.277Z,19.51
2023-05-22T10:10:09.234Z,19.50
2023-05-22T10:11:09.163Z,19.51
2023-05-22T10:12:09.128Z,19.50
2023-05-22T10:13:23.741Z,19.53
2023-05-22T10:14:09.006Z,19.53
2023-05-22T10:15:08.958Z,19.57
2023-05-22T10:16:08.916Z,19.53
2023-05-22T10:17:09.736Z,19.54
2023-05-22T10:18:08.836Z,19.54
2023-05-22T10:19:08.828Z,19.50
2023-05-22T10:20:08.694Z,19.55
2023-05-22T10:21:08.644Z,19.53
2023-05-22T10:22:08.598Z,19.54
2023-05-22T10:23:08.646Z,19.63
2023-05-22T10:24:08.493Z,19.60
2023-05-22T10:25:10.608Z,19.63
2023-05-22T10:26:08.387Z,19.68
2023-05-22T10:27:08.341Z,19.68
2023-05-22T10:28:08.290Z,19.65
2023-05-22T10:29:08.239Z,19.68
2023-05-22T10:30:08.196Z,19.69
2023-05-22T10:31:08.131Z,19.76
2023-05-22T10:32:08.090Z,19.73
2023-05-22T10:33:08.117Z,19.69
2023-05-22T10:34:08.120Z,19.76
2023-05-22T10:35:07.955Z,19.70
2023-05-22T10:36:07.930Z,19.73
2023-05-22T10:37:16.590Z,19.73
2023-05-22T10:38:07.786Z,19.76
2023-05-22T10:39:07.845Z,19.72
2023-05-22T10:40:07.687Z,19.70
2023-05-22T10:41:07.643Z,19.75
2023-05-22T10:42:07.590Z,19.76
2023-05-22T10:43:07.552Z,19.76
2023-05-22T10:44:07.473Z,19.72
2023-05-22T10:45:07.428Z,19.78
2023-05-22T10:46:07.561Z,19.76
2023-05-22T10:47:07.320Z,19.80
2023-05-22T10:48:07.321Z,19.83
2023-05-22T10:49:07.220Z,19.88
2023-05-22T10:50:07.173Z,19.83
2023-05-22T10:51:07.114Z,19.84
2023-05-22T10:52:07.072Z,19.84
2023-05-22T10:53:07.019Z,19.87
2023-05-22T10:54:06.966Z,19.91
2023-05-22T10:55:07.017Z,19.93
2023-05-22T10:56:06.863Z,19.95
2023-05-22T10:57:06.810Z,19.91
2023-05-22T10:58:06.767Z,19.94
2023-05-22T10:59:06.710Z,19.94
2023-05-22T11:00:06.691Z,19.88
2023-05-22T11:01:06.613Z,19.91
2023-05-22T11:02:09.030Z,19.95
2023-05-22T11:03:17.035Z,19.94
2023-05-22T11:04:06.466Z,19.90
2023-05-22T11:05:06.553Z,19.95
2023-05-22T11:06:06.354Z,19.97
2023-05-22T11:07:06.312Z,19.95
2023-05-22T11:08:06.258Z,19.91
2023-05-22T11:09:06.198Z,20.00
2023-05-22T11:10:06.154Z,20.03
2023-05-22T11:11:06.206Z,19.94
2023-05-22T11:12:06.049Z,20.00
2023-05-22T11:13:05.997Z,19.98
2023-05-22T11:14:05.956Z,20.03
2023-05-22T11:15:05.890Z,19.97
2023-05-22T11:16:05.846Z,20.00
2023-05-22T11:17:27.907Z,20.05
2023-05-22T11:18:05.801Z,20.06
2023-05-22T11:19:21.308Z,19.98
2023-05-22T11:20:05.938Z,20.05
2023-05-22T11:21:05.605Z,20.03
2023-05-22T11:22:05.543Z,20.16
2023-05-22T11:23:05.491Z,20.13
2023-05-22T11:24:05.443Z,20.10
2023-05-22T11:25:05.402Z,20.10
2023-05-22T11:26:05.332Z,20.06
2023-05-22T11:27:05.391Z,20.06
2023-05-22T11:28:05.237Z,20.12
2023-05-22T11:29:05.187Z,20.12
2023-05-22T11:30:05.136Z,20.16
2023-05-22T11:31:05.115Z,20.16
2023-05-22T11:32:05.035Z,20.13
2023-05-22T11:33:05.013Z,20.18
2023-05-22T11:34:04.933Z,20.23
2023-05-22T11:35:04.888Z,20.12
2023-05-22T11:36:04.834Z,20.23
2023-05-22T11:37:04.788Z,20.15
2023-05-22T11:38:04.740Z,20.20
2023-05-22T11:39:04.678Z,20.10
2023-05-22T11:40:04.640Z,20.30
2023-05-22T11:41:04.588Z,20.21
2023-05-22T11:42:04.529Z,20.28
2023-05-22T11:43:04.593Z,20.25
2023-05-22T11:44:04.427Z,20.16
2023-05-22T11:45:04.378Z,20.30
2023-05-22T11:46:04.351Z,20.23
2023-05-22T11:47:25.306Z,20.21
2023-05-22T11:48:04.252Z,20.21
2023-05-22T11:49:04.196Z,20.25
2023-05-22T11:50:04.137Z,20.21
2023-05-22T11:51:04.066Z,20.21
2023-05-22T11:52:04.019Z,20.39
2023-05-22T11:53:03.969Z,20.30
2023-05-22T11:54:03.918Z,20.34
2023-05-22T11:55:24.865Z,20.31
2023-05-22T11:56:03.816Z,20.31
2023-05-22T11:57:03.766Z,20.41
2023-05-22T11:58:03.724Z,20.33
2023-05-22T11:59:03.769Z,20.35
2023-05-22T12:00:03.646Z,20.34
2023-05-22T12:01:03.562Z,20.35
2023-05-22T12:02:03.508Z,20.33
2023-05-22T12:03:03.513Z,20.42
2023-05-22T12:04:03.464Z,20.35
2023-05-22T12:05:24.359Z,20.38
2023-05-22T12:06:03.373Z,20.41
2023-05-22T12:07:03.254Z,20.38
2023-05-22T12:08:03.208Z,20.39
2023-05-22T12:09:03.152Z,20.39
2023-05-22T12:10:03.101Z,20.39
2023-05-22T12:11:03.050Z,20.46
2023-05-22T12:12:03.003Z,20.46
2023-05-22T12:13:02.944Z,20.49
2023-05-22T12:14:02.897Z,20.58
2023-05-22T12:15:02.952Z,20.49
2023-05-22T12:16:02.823Z,20.46
2023-05-22T12:17:02.818Z,20.46
2023-05-22T12:18:02.822Z,20.47
2023-05-22T12:19:02.668Z,20.51
2023-05-22T12:20:02.598Z,20.47
2023-05-22T12:21:02.611Z,20.54
2023-05-22T12:22:13.349Z,20.54
2023-05-22T12:23:02.444Z,20.51
2023-05-22T12:24:02.392Z,20.61
2023-05-22T12:25:02.357Z,20.61
2023-05-22T12:26:02.310Z,20.61
2023-05-22T12:27:02.246Z,20.62
2023-05-22T12:28:02.216Z,20.59
2023-05-22T12:29:02.139Z,20.61
2023-05-22T12:30:02.084Z,20.68
2023-05-22T12:31:02.152Z,20.65
2023-05-22T12:32:02.060Z,20.68
2023-05-22T12:33:02.006Z,20.59
2023-05-22T12:34:01.892Z,20.68
2023-05-22T12:35:01.846Z,20.61
2023-05-22T12:36:01.793Z,20.69
2023-05-22T12:37:01.753Z,20.68
2023-05-22T12:38:01.695Z,20.66
2023-05-22T12:39:01.644Z,20.71
2023-05-22T12:40:01.610Z,20.79
2023-05-22T12:41:01.547Z,20.72
2023-05-22T12:42:01.491Z,20.83
2023-05-22T12:43:01.436Z,20.71
2023-05-22T12:44:01.391Z,20.71
2023-05-22T12:45:08.658Z,20.84
2023-05-22T12:46:02.697Z,20.80
2023-05-22T12:47:01.410Z,20.76
2023-05-22T12:48:01.227Z,20.80
2023-05-22T12:49:01.146Z,20.84
2023-05-22T12:50:01.088Z,20.87
2023-05-22T12:51:01.037Z,20.86
2023-05-22T12:52:00.982Z,20.84